createdAt,value
2022-11-19T00:03:36.957Z,-2.50
2022-11-19T00:13:43.788Z,-2.50
2022-11-19T00:23:47.228Z,-2.40
2022-11-19T00:33:54.319Z,-2.40
2022-11-19T00:43:57.861Z,-2.40
2022-11-19T00:54:02.649Z,-2.40
2022-11-19T01:04:07.112Z,-2.50
2022-11-19T01:14:12.060Z,-2.50
2022-11-19T01:24:15.513Z,-2.50
2022-11-19T01:34:20.293Z,-2.50
2022-11-19T01:45:04.319Z,-2.50
2022-11-19T01:55:10.982Z,-2.50
2022-11-19T02:05:14.641Z,-2.50
2022-11-19T02:15:32.934Z,-2.50
2022-11-19T02:25:58.369Z,-2.40
2022-11-19T02:36:14.232Z,-2.50
2022-11-19T02:46:19.305Z,-2.50
2022-11-19T02:56:52.983Z,-2.50
2022-11-19T03:06:59.674Z,-2.40
2022-11-19T03:17:14.188Z,-2.40
2022-11-19T03:27:25.706Z,-2.30
2022-11-19T03:37:34.979Z,-2.40
2022-11-19T03:47:41.981Z,-2.40
2022-11-19T03:57:47.227Z,-2.50
2022-11-19T04:07:50.730Z,-2.60
2022-11-19T04:17:55.555Z,-2.60
2022-11-19T04:27:59.019Z,-2.60
2022-11-19T04:38:03.833Z,-2.60
2022-11-19T04:48:07.964Z,-2.50
2022-11-19T04:58:12.945Z,-2.60
2022-11-19T05:08:16.417Z,-2.60
2022-11-19T05:18:21.524Z,-2.50
2022-11-19T05:28:38.119Z,-2.70
2022-11-19T05:38:44.416Z,-2.70
2022-11-19T05:48:48.114Z,-2.70
2022-11-19T05:58:52.939Z,-2.60
2022-11-19T06:08:56.449Z,-2.60
2022-11-19T06:19:01.320Z,-2.60
2022-11-19T06:29:04.776Z,-2.70
2022-11-19T06:39:09.855Z,-2.70
2022-11-19T06:49:19.586Z,-2.80
2022-11-19T06:59:25.123Z,-2.90
2022-11-19T07:09:29.833Z,-2.90
2022-11-19T07:19:34.694Z,-3.10
2022-11-19T07:29:38.866Z,-2.70
2022-11-19T07:39:43.707Z,-2.10
2022-11-19T07:49:47.094Z,-1.10
2022-11-19T07:59:51.910Z,0.40
2022-11-19T08:09:55.414Z,6.40
2022-11-19T08:20:00.208Z,11.10
2022-11-19T08:30:03.689Z,14.10
2022-11-19T08:40:10.629Z,11.40
2022-11-19T08:50:14.117Z,11.10
2022-11-19T09:00:21.306Z,8.20
2022-11-19T09:22:26.684Z,3.50
2022-11-19T09:32:30.370Z,13.90
2022-11-19T09:42:44.646Z,21.60
2022-11-19T09:52:54.081Z,24.70
2022-11-19T10:03:00.519Z,25.30
2022-11-19T10:13:34.134Z,26.90
2022-11-19T10:23:52.883Z,27.50
2022-11-19T10:34:06.193Z,24.00
2022-11-19T10:44:43.719Z,25.70
2022-11-19T10:54:48.136Z,22.30
2022-11-19T11:05:10.746Z,20.10
2022-11-19T11:15:17.375Z,13.10
2022-11-19T11:25:28.595Z,10.40
2022-11-19T11:35:35.643Z,9.60
2022-11-19T11:45:40.712Z,6.60
2022-11-19T11:55:44.700Z,5.50
2022-11-19T12:06:02.224Z,4.40
2022-11-19T12:16:13.665Z,3.40
2022-11-19T12:26:28.382Z,3.10
2022-11-19T12:36:42.757Z,2.50
2022-11-19T12:46:58.161Z,1.90
2022-11-19T12:57:17.634Z,1.10
2022-11-19T13:07:28.199Z,0.70
2022-11-19T13:17:36.188Z,0.50
2022-11-19T13:27:41.249Z,0.30
2022-11-19T13:37:58.692Z,0.10
2022-11-19T13:48:12.005Z,0.00
2022-11-19T13:58:23.580Z,0.00
2022-11-19T14:08:52.657Z,0.00
2022-11-19T14:19:19.485Z,0.00
2022-11-19T14:29:56.961Z,0.60
2022-11-19T14:40:08.702Z,-0.20
2022-11-19T14:50:27.818Z,-1.00
2022-11-19T15:00:35.288Z,-1.90
2022-11-19T15:11:04.938Z,-2.30
2022-11-19T15:21:25.659Z,-2.30
2022-11-19T15:31:52.523Z,-2.20
2022-11-19T15:42:02.710Z,-2.20
2022-11-19T15:52:18.489Z,-2.20
2022-11-19T16:02:28.621Z,-2.30
2022-11-19T16:12:50.714Z,-2.30
2022-11-19T16:22:59.179Z,-2.50
2022-11-19T16:33:04.029Z,-2.70
2022-11-19T16:43:07.626Z,-3.00
2022-11-19T16:53:12.510Z,-3.10
2022-11-19T17:03:35.760Z,-3.30
2022-11-19T17:13:40.669Z,-3.50
2022-11-19T17:23:50.428Z,-3.80
2022-11-19T17:33:57.607Z,-3.70
2022-11-19T17:44:18.743Z,-3.60
2022-11-19T17:54:24.681Z,-3.50
2022-11-19T18:04:28.124Z,-3.40
2022-11-19T18:14:33.082Z,-3.40
2022-11-19T18:24:36.575Z,-3.90
2022-11-19T18:34:41.509Z,-4.20
2022-11-19T18:44:45.026Z,-4.40
2022-11-19T18:54:49.917Z,-4.70
2022-11-19T19:04:53.497Z,-5.00
2022-11-19T19:14:58.972Z,-5.10
2022-11-19T19:25:02.542Z,-4.90
2022-11-19T19:35:09.141Z,-4.50
2022-11-19T19:45:13.009Z,-5.20
2022-11-19T19:55:18.206Z,-5.50
2022-11-19T20:05:21.684Z,-5.70
2022-11-19T20:15:26.551Z,-6.10
2022-11-19T20:25:30.201Z,-6.30
2022-11-19T20:35:35.068Z,-6.60
2022-11-19T20:45:40.850Z,-6.80
2022-11-19T20:56:04.570Z,-6.90
2022-11-19T21:06:09.630Z,-7.10
2022-11-19T21:16:16.828Z,-7.00
2022-11-19T21:26:22.522Z,-6.90
2022-11-19T21:36:27.737Z,-6.90
2022-11-19T21:46:31.794Z,-6.80
2022-11-19T21:56:38.802Z,-6.70
2022-11-19T22:06:42.991Z,-6.70
2022-11-19T22:16:47.850Z,-6.80
2022-11-19T22:26:51.309Z,-6.70
2022-11-19T22:36:56.565Z,-6.60
2022-11-19T22:47:01.020Z,-6.70
2022-11-19T22:57:05.949Z,-6.90
2022-11-19T23:07:09.727Z,-7.00
2022-11-19T23:17:14.574Z,-7.10
2022-11-19T23:27:21.946Z,-7.10
2022-11-19T23:37:27.178Z,-6.90
2022-11-19T23:47:30.607Z,-6.80
2022-11-19T23:57:35.448Z,-6.50
